sensor_id;sensor_type;location;lat;lon;timestamp;pressure;altitude;pressure_sealevel;temperature;humidity
26823;BME280;14852;51.910;8.878;2023-04-30T00:02:24;100426.22;;;8.79;56.52
26823;BME280;14852;51.910;8.878;2023-04-30T00:04:50;100425.56;;;8.74;56.44
26823;BME280;14852;51.910;8.878;2023-04-30T00:07:16;100423.97;;;8.70;56.50
26823;BME280;14852;51.910;8.878;2023-04-30T00:09:41;100434.59;;;8.62;56.47
26823;BME280;14852;51.910;8.878;2023-04-30T00:12:07;100432.34;;;8.52;56.52
26823;BME280;14852;51.910;8.878;2023-04-30T00:14:33;100437.88;;;8.41;56.84
26823;BME280;14852;51.910;8.878;2023-04-30T00:16:59;100442.44;;;8.33;56.82
26823;BME280;14852;51.910;8.878;2023-04-30T00:19:25;100441.81;;;8.25;56.61
26823;BME280;14852;51.910;8.878;2023-04-30T00:21:50;100437.63;;;8.21;56.64
26823;BME280;14852;51.910;8.878;2023-04-30T00:24:16;100449.84;;;8.17;56.87
26823;BME280;14852;51.910;8.878;2023-04-30T00:26:42;100447.31;;;8.16;56.63
26823;BME280;14852;51.910;8.878;2023-04-30T00:29:09;100449.00;;;8.17;56.60
26823;BME280;14852;51.910;8.878;2023-04-30T00:31:35;100447.97;;;8.21;56.63
26823;BME280;14852;51.910;8.878;2023-04-30T00:34:01;100448.75;;;8.24;56.71
26823;BME280;14852;51.910;8.878;2023-04-30T00:36:27;100450.31;;;8.30;56.51
26823;BME280;14852;51.910;8.878;2023-04-30T00:38:53;100453.66;;;8.33;56.12
26823;BME280;14852;51.910;8.878;2023-04-30T00:41:20;100456.25;;;8.33;56.45
26823;BME280;14852;51.910;8.878;2023-04-30T00:43:47;100458.06;;;8.30;56.17
26823;BME280;14852;51.910;8.878;2023-04-30T00:46:12;100451.47;;;8.20;56.66
26823;BME280;14852;51.910;8.878;2023-04-30T00:48:38;100459.44;;;8.14;56.54
26823;BME280;14852;51.910;8.878;2023-04-30T00:51:05;100456.09;;;8.10;56.67
26823;BME280;14852;51.910;8.878;2023-04-30T00:53:31;100459.56;;;8.09;56.66
26823;BME280;14852;51.910;8.878;2023-04-30T00:55:58;100464.75;;;8.09;56.73
26823;BME280;14852;51.910;8.878;2023-04-30T00:58:25;100456.97;;;8.09;56.67
26823;BME280;14852;51.910;8.878;2023-04-30T01:00:51;100465.59;;;8.10;56.79
26823;BME280;14852;51.910;8.878;2023-04-30T01:03:17;100470.81;;;8.08;56.83
26823;BME280;14852;51.910;8.878;2023-04-30T01:05:42;100474.25;;;8.09;56.64
26823;BME280;14852;51.910;8.878;2023-04-30T01:08:09;100477.94;;;8.02;56.68
26823;BME280;14852;51.910;8.878;2023-04-30T01:10:44;100478.28;;;7.89;56.88
26823;BME280;14852;51.910;8.878;2023-04-30T01:13:29;100476.00;;;7.80;57.18
26823;BME280;14852;51.910;8.878;2023-04-30T01:16:14;100485.66;;;7.74;57.11
26823;BME280;14852;51.910;8.878;2023-04-30T01:18:53;100484.88;;;7.72;57.18
26823;BME280;14852;51.910;8.878;2023-04-30T01:21:22;100482.41;;;7.67;57.12
26823;BME280;14852;51.910;8.878;2023-04-30T01:29:58;100484.38;;;7.59;57.32
26823;BME280;14852;51.910;8.878;2023-04-30T01:32:26;100477.44;;;7.61;57.05
26823;BME280;14852;51.910;8.878;2023-04-30T01:34:52;100474.78;;;7.62;57.03
26823;BME280;14852;51.910;8.878;2023-04-30T01:40:42;100488.50;;;7.64;57.36
26823;BME280;14852;51.910;8.878;2023-04-30T01:46:09;100492.75;;;7.67;57.24
26823;BME280;14852;51.910;8.878;2023-04-30T01:51:35;100486.69;;;7.68;57.28
26823;BME280;14852;51.910;8.878;2023-04-30T01:54:24;100485.84;;;7.68;57.24
26823;BME280;14852;51.910;8.878;2023-04-30T01:57:27;100487.66;;;7.64;57.39
26823;BME280;14852;51.910;8.878;2023-04-30T01:59:53;100495.75;;;7.52;57.20
26823;BME280;14852;51.910;8.878;2023-04-30T02:02:20;100494.25;;;7.45;57.29
26823;BME280;14852;51.910;8.878;2023-04-30T02:04:45;100490.03;;;7.41;57.31
26823;BME280;14852;51.910;8.878;2023-04-30T02:07:25;100494.38;;;7.40;57.42
26823;BME280;14852;51.910;8.878;2023-04-30T02:09:53;100492.66;;;7.39;57.47
26823;BME280;14852;51.910;8.878;2023-04-30T02:12:19;100504.84;;;7.36;57.57
26823;BME280;14852;51.910;8.878;2023-04-30T02:14:45;100496.41;;;7.29;57.38
26823;BME280;14852;51.910;8.878;2023-04-30T02:17:11;100495.56;;;7.28;57.64
26823;BME280;14852;51.910;8.878;2023-04-30T02:19:36;100492.97;;;7.28;57.44
26823;BME280;14852;51.910;8.878;2023-04-30T02:22:02;100499.13;;;7.24;57.49
26823;BME280;14852;51.910;8.878;2023-04-30T02:24:28;100500.13;;;7.19;57.76
26823;BME280;14852;51.910;8.878;2023-04-30T02:26:54;100499.47;;;7.12;57.64
26823;BME280;14852;51.910;8.878;2023-04-30T02:29:19;100501.47;;;7.01;57.66
26823;BME280;14852;51.910;8.878;2023-04-30T02:31:45;100502.66;;;6.88;57.96
26823;BME280;14852;51.910;8.878;2023-04-30T02:34:11;100509.72;;;6.81;58.07
26823;BME280;14852;51.910;8.878;2023-04-30T02:36:37;100508.09;;;6.77;57.88
26823;BME280;14852;51.910;8.878;2023-04-30T02:39:02;100509.06;;;6.73;57.76
26823;BME280;14852;51.910;8.878;2023-04-30T02:41:28;100510.91;;;6.68;58.16
26823;BME280;14852;51.910;8.878;2023-04-30T02:43:55;100512.69;;;6.66;57.87
26823;BME280;14852;51.910;8.878;2023-04-30T02:46:20;100514.44;;;6.64;57.73
26823;BME280;14852;51.910;8.878;2023-04-30T02:48:46;100529.03;;;6.67;57.71
26823;BME280;14852;51.910;8.878;2023-04-30T02:51:12;100522.88;;;6.71;57.49
26823;BME280;14852;51.910;8.878;2023-04-30T02:53:38;100520.25;;;6.74;57.89
26823;BME280;14852;51.910;8.878;2023-04-30T02:56:04;100514.19;;;6.75;57.68
26823;BME280;14852;51.910;8.878;2023-04-30T02:58:29;100512.47;;;6.75;57.82
26823;BME280;14852;51.910;8.878;2023-04-30T03:00:55;100503.84;;;6.75;57.55
26823;BME280;14852;51.910;8.878;2023-04-30T03:03:21;100511.81;;;6.67;57.86
26823;BME280;14852;51.910;8.878;2023-04-30T03:05:47;100514.72;;;6.53;58.03
26823;BME280;14852;51.910;8.878;2023-04-30T03:08:13;100512.31;;;6.46;58.18
26823;BME280;14852;51.910;8.878;2023-04-30T03:10:38;100519.28;;;6.42;58.18
26823;BME280;14852;51.910;8.878;2023-04-30T03:13:05;100518.50;;;6.39;58.14
26823;BME280;14852;51.910;8.878;2023-04-30T03:15:33;100526.19;;;6.40;58.04
26823;BME280;14852;51.910;8.878;2023-04-30T03:17:58;100520.16;;;6.41;58.14
26823;BME280;14852;51.910;8.878;2023-04-30T03:20:24;100517.56;;;6.43;57.93
26823;BME280;14852;51.910;8.878;2023-04-30T03:22:50;100517.59;;;6.41;58.21
26823;BME280;14852;51.910;8.878;2023-04-30T03:25:16;100516.81;;;6.36;58.36
26823;BME280;14852;51.910;8.878;2023-04-30T03:27:42;100519.59;;;6.29;58.10
26823;BME280;14852;51.910;8.878;2023-04-30T03:30:08;100531.78;;;6.22;58.55
26823;BME280;14852;51.910;8.878;2023-04-30T03:32:34;100536.16;;;6.18;58.38
26823;BME280;14852;51.910;8.878;2023-04-30T03:34:59;100539.63;;;6.17;58.23
26823;BME280;14852;51.910;8.878;2023-04-30T03:37:25;100540.41;;;6.21;58.31
26823;BME280;14852;51.910;8.878;2023-04-30T03:39:51;100536.09;;;6.22;58.34
26823;BME280;14852;51.910;8.878;2023-04-30T03:42:17;100545.66;;;6.16;58.61
26823;BME280;14852;51.910;8.878;2023-04-30T03:44:43;100541.63;;;6.05;58.50
26823;BME280;14852;51.910;8.878;2023-04-30T03:47:08;100541.03;;;5.92;58.87
26823;BME280;14852;51.910;8.878;2023-04-30T03:49:34;100548.06;;;5.84;58.95
26823;BME280;14852;51.910;8.878;2023-04-30T03:52:00;100540.38;;;5.81;58.88
26823;BME280;14852;51.910;8.878;2023-04-30T03:54:27;100535.25;;;5.78;58.83
26823;BME280;14852;51.910;8.878;2023-04-30T03:56:53;100542.13;;;5.79;58.78
26823;BME280;14852;51.910;8.878;2023-04-30T03:59:19;100543.78;;;5.81;58.67
26823;BME280;14852;51.910;8.878;2023-04-30T04:01:45;100538.53;;;5.88;58.44
26823;BME280;14852;51.910;8.878;2023-04-30T04:04:11;100541.84;;;5.94;58.50
26823;BME280;14852;51.910;8.878;2023-04-30T04:06:36;100537.50;;;5.96;58.39
26823;BME280;14852;51.910;8.878;2023-04-30T04:09:02;100540.88;;;6.00;58.17
26823;BME280;14852;51.910;8.878;2023-04-30T04:11:29;100535.63;;;6.03;58.48
26823;BME280;14852;51.910;8.878;2023-04-30T04:13:56;100538.09;;;6.09;58.34
26823;BME280;14852;51.910;8.878;2023-04-30T04:16:21;100538.81;;;6.15;58.01
26823;BME280;14852;51.910;8.878;2023-04-30T04:18:47;100541.34;;;6.17;58.23
26823;BME280;14852;51.910;8.878;2023-04-30T04:21:13;100540.44;;;6.20;58.31
26823;BME280;14852;51.910;8.878;2023-04-30T04:23:39;100543.78;;;6.23;58.18
26823;BME280;14852;51.910;8.878;2023-04-30T04:26:04;100539.53;;;6.22;58.29
26823;BME280;14852;51.910;8.878;2023-04-30T04:28:30;100534.44;;;6.19;58.27
26823;BME280;14852;51.910;8.878;2023-04-30T04:30:57;100537.00;;;6.19;58.39
26823;BME280;14852;51.910;8.878;2023-04-30T04:33:23;100538.78;;;6.17;58.12
26823;BME280;14852;51.910;8.878;2023-04-30T04:35:49;100544.03;;;6.12;58.24
26823;BME280;14852;51.910;8.878;2023-04-30T04:38:15;100543.31;;;6.06;58.55
26823;BME280;14852;51.910;8.878;2023-04-30T04:40:51;100541.56;;;6.08;58.45
26823;BME280;14852;51.910;8.878;2023-04-30T04:43:17;100539.63;;;6.17;57.99
26823;BME280;14852;51.910;8.878;2023-04-30T04:45:44;100543.63;;;6.31;57.98
26823;BME280;14852;51.910;8.878;2023-04-30T04:48:11;100547.44;;;6.53;57.93
26823;BME280;14852;51.910;8.878;2023-04-30T04:50:37;100545.09;;;6.79;57.66
26823;BME280;14852;51.910;8.878;2023-04-30T04:53:03;100535.56;;;7.77;56.01
26823;BME280;14852;51.910;8.878;2023-04-30T04:55:28;100528.19;;;9.29;52.75
26823;BME280;14852;51.910;8.878;2023-04-30T04:57:54;100523.88;;;10.67;49.61
26823;BME280;14852;51.910;8.878;2023-04-30T05:00:21;100522.53;;;11.78;48.00
26823;BME280;14852;51.910;8.878;2023-04-30T05:02:48;100525.69;;;12.77;46.15
26823;BME280;14852;51.910;8.878;2023-04-30T05:05:14;100524.63;;;13.66;45.26
26823;BME280;14852;51.910;8.878;2023-04-30T05:07:40;100519.56;;;14.43;44.00
26823;BME280;14852;51.910;8.878;2023-04-30T05:10:07;100528.06;;;15.22;43.49
26823;BME280;14852;51.910;8.878;2023-04-30T05:12:33;100514.91;;;15.94;42.71
26823;BME280;14852;51.910;8.878;2023-04-30T05:14:59;100513.72;;;16.54;42.05
26823;BME280;14852;51.910;8.878;2023-04-30T05:17:25;100517.25;;;17.07;41.17
26823;BME280;14852;51.910;8.878;2023-04-30T05:19:51;100520.31;;;17.26;40.35
26823;BME280;14852;51.910;8.878;2023-04-30T05:22:17;100510.22;;;17.58;40.08
26823;BME280;14852;51.910;8.878;2023-04-30T05:24:43;100514.25;;;18.13;39.44
26823;BME280;14852;51.910;8.878;2023-04-30T05:27:09;100509.69;;;18.75;38.81
26823;BME280;14852;51.910;8.878;2023-04-30T05:29:34;100499.06;;;19.34;38.23
26823;BME280;14852;51.910;8.878;2023-04-30T05:32:01;100498.78;;;19.72;38.03
26823;BME280;14852;51.910;8.878;2023-04-30T05:34:26;100499.94;;;19.90;37.59
26823;BME280;14852;51.910;8.878;2023-04-30T05:36:52;100500.88;;;20.11;37.31
26823;BME280;14852;51.910;8.878;2023-04-30T05:39:18;100495.06;;;20.72;37.18
26823;BME280;14852;51.910;8.878;2023-04-30T05:41:44;100504.09;;;21.22;36.43
26823;BME280;14852;51.910;8.878;2023-04-30T05:44:09;100496.34;;;21.70;35.79
26823;BME280;14852;51.910;8.878;2023-04-30T05:46:35;100500.72;;;22.21;35.45
26823;BME280;14852;51.910;8.878;2023-04-30T05:49:01;100495.03;;;22.54;35.16
26823;BME280;14852;51.910;8.878;2023-04-30T05:51:27;100501.59;;;22.69;35.15
26823;BME280;14852;51.910;8.878;2023-04-30T05:53:53;100499.34;;;23.13;34.72
26823;BME280;14852;51.910;8.878;2023-04-30T05:56:19;100503.44;;;23.64;34.18
26823;BME280;14852;51.910;8.878;2023-04-30T05:58:45;100502.53;;;24.00;33.97
26823;BME280;14852;51.910;8.878;2023-04-30T06:01:11;100503.16;;;24.12;33.34
26823;BME280;14852;51.910;8.878;2023-04-30T06:03:37;100510.34;;;24.02;33.33
26823;BME280;14852;51.910;8.878;2023-04-30T06:06:03;100511.59;;;23.80;33.55
26823;BME280;14852;51.910;8.878;2023-04-30T06:08:29;100511.47;;;23.72;33.83
26823;BME280;14852;51.910;8.878;2023-04-30T06:10:55;100509.22;;;23.30;34.38
26823;BME280;14852;51.910;8.878;2023-04-30T06:13:21;100519.59;;;22.56;35.00
26823;BME280;14852;51.910;8.878;2023-04-30T06:15:47;100520.94;;;22.31;35.27
26823;BME280;14852;51.910;8.878;2023-04-30T06:18:13;100519.63;;;22.07;35.50
26823;BME280;14852;51.910;8.878;2023-04-30T06:20:39;100516.88;;;22.18;35.60
26823;BME280;14852;51.910;8.878;2023-04-30T06:23:05;100517.25;;;22.92;34.69
26823;BME280;14852;51.910;8.878;2023-04-30T06:25:31;100514.16;;;23.06;34.25
26823;BME280;14852;51.910;8.878;2023-04-30T06:27:57;100525.69;;;21.57;35.72
26823;BME280;14852;51.910;8.878;2023-04-30T06:30:22;100528.59;;;21.85;35.91
26823;BME280;14852;51.910;8.878;2023-04-30T06:32:48;100526.91;;;21.23;36.64
26823;BME280;14852;51.910;8.878;2023-04-30T06:35:14;100527.41;;;20.64;37.34
26823;BME280;14852;51.910;8.878;2023-04-30T06:37:40;100528.47;;;19.96;38.51
26823;BME280;14852;51.910;8.878;2023-04-30T06:40:06;100531.94;;;19.63;39.21
26823;BME280;14852;51.910;8.878;2023-04-30T06:42:32;100527.56;;;21.04;36.58
26823;BME280;14852;51.910;8.878;2023-04-30T06:45:03;100525.94;;;22.15;34.89
26823;BME280;14852;51.910;8.878;2023-04-30T06:47:31;100528.38;;;22.66;33.78
26823;BME280;14852;51.910;8.878;2023-04-30T06:50:01;100519.28;;;23.27;32.57
26823;BME280;14852;51.910;8.878;2023-04-30T06:52:27;100523.88;;;23.81;32.23
26823;BME280;14852;51.910;8.878;2023-04-30T06:54:53;100526.69;;;24.34;31.40
26823;BME280;14852;51.910;8.878;2023-04-30T06:57:19;100522.81;;;24.29;31.62
26823;BME280;14852;51.910;8.878;2023-04-30T06:59:44;100525.91;;;24.24;31.23
26823;BME280;14852;51.910;8.878;2023-04-30T07:02:11;100511.66;;;24.78;30.47
26823;BME280;14852;51.910;8.878;2023-04-30T07:04:37;100516.06;;;25.05;30.58
26823;BME280;14852;51.910;8.878;2023-04-30T07:07:02;100517.75;;;25.32;30.00
26823;BME280;14852;51.910;8.878;2023-04-30T07:09:29;100514.97;;;25.42;29.33
26823;BME280;14852;51.910;8.878;2023-04-30T07:11:56;100512.50;;;24.79;29.46
26823;BME280;14852;51.910;8.878;2023-04-30T07:14:23;100520.53;;;25.05;29.46
26823;BME280;14852;51.910;8.878;2023-04-30T07:16:49;100516.56;;;25.27;29.60
26823;BME280;14852;51.910;8.878;2023-04-30T07:19:15;100516.53;;;25.78;29.01
26823;BME280;14852;51.910;8.878;2023-04-30T07:21:41;100512.50;;;26.16;28.20
26823;BME280;14852;51.910;8.878;2023-04-30T07:24:07;100514.75;;;26.45;28.53
26823;BME280;14852;51.910;8.878;2023-04-30T07:26:32;100509.25;;;26.39;28.03
26823;BME280;14852;51.910;8.878;2023-04-30T07:28:58;100512.50;;;26.99;27.93
26823;BME280;14852;51.910;8.878;2023-04-30T07:31:25;100506.44;;;27.29;27.53
26823;BME280;14852;51.910;8.878;2023-04-30T07:33:51;100509.56;;;27.65;26.76
26823;BME280;14852;51.910;8.878;2023-04-30T07:36:17;100514.63;;;27.12;26.87
26823;BME280;14852;51.910;8.878;2023-04-30T07:38:43;100513.13;;;26.85;27.15
26823;BME280;14852;51.910;8.878;2023-04-30T07:41:09;100514.81;;;27.02;26.92
26823;BME280;14852;51.910;8.878;2023-04-30T07:43:35;100504.94;;;27.27;26.39
26823;BME280;14852;51.910;8.878;2023-04-30T07:46:01;100511.44;;;27.24;26.53
26823;BME280;14852;51.910;8.878;2023-04-30T07:48:29;100512.88;;;27.67;26.39
26823;BME280;14852;51.910;8.878;2023-04-30T07:50:54;100509.25;;;27.99;25.69
26823;BME280;14852;51.910;8.878;2023-04-30T07:53:22;100511.59;;;27.55;25.77
26823;BME280;14852;51.910;8.878;2023-04-30T07:55:48;100513.63;;;27.29;25.85
26823;BME280;14852;51.910;8.878;2023-04-30T07:58:14;100515.13;;;27.15;26.18
26823;BME280;14852;51.910;8.878;2023-04-30T08:00:39;100510.47;;;27.01;26.40
26823;BME280;14852;51.910;8.878;2023-04-30T08:03:05;100525.00;;;26.98;26.35
26823;BME280;14852;51.910;8.878;2023-04-30T08:05:31;100523.81;;;26.85;26.67
26823;BME280;14852;51.910;8.878;2023-04-30T08:07:57;100517.88;;;27.70;25.49
26823;BME280;14852;51.910;8.878;2023-04-30T08:10:22;100516.28;;;28.31;24.87
26823;BME280;14852;51.910;8.878;2023-04-30T08:12:48;100512.31;;;28.96;24.29
26823;BME280;14852;51.910;8.878;2023-04-30T08:15:14;100509.44;;;28.97;24.24
26823;BME280;14852;51.910;8.878;2023-04-30T08:17:40;100503.81;;;28.92;24.78
26823;BME280;14852;51.910;8.878;2023-04-30T08:20:06;100511.94;;;28.53;24.65
26823;BME280;14852;51.910;8.878;2023-04-30T08:22:32;100508.34;;;28.92;24.55
26823;BME280;14852;51.910;8.878;2023-04-30T08:24:58;100498.81;;;29.27;23.76
26823;BME280;14852;51.910;8.878;2023-04-30T08:27:26;100501.88;;;29.38;24.03
26823;BME280;14852;51.910;8.878;2023-04-30T08:29:52;100503.81;;;29.59;23.77
26823;BME280;14852;51.910;8.878;2023-04-30T08:32:18;100504.66;;;28.93;23.71
26823;BME280;14852;51.910;8.878;2023-04-30T08:34:44;100502.09;;;28.54;25.03
26823;BME280;14852;51.910;8.878;2023-04-30T08:37:10;100501.56;;;28.35;24.88
26823;BME280;14852;51.910;8.878;2023-04-30T08:39:36;100508.53;;;28.05;25.22
26823;BME280;14852;51.910;8.878;2023-04-30T08:42:04;100503.44;;;27.32;26.38
26823;BME280;14852;51.910;8.878;2023-04-30T08:44:33;100516.91;;;26.33;27.02
26823;BME280;14852;51.910;8.878;2023-04-30T08:47:00;100523.44;;;24.94;28.82
26823;BME280;14852;51.910;8.878;2023-04-30T08:49:28;100528.34;;;23.80;30.59
26823;BME280;14852;51.910;8.878;2023-04-30T08:51:57;100527.41;;;23.06;31.60
26823;BME280;14852;51.910;8.878;2023-04-30T08:54:25;100522.50;;;22.63;32.34
26823;BME280;14852;51.910;8.878;2023-04-30T08:56:52;100521.16;;;21.99;33.37
26823;BME280;14852;51.910;8.878;2023-04-30T08:59:18;100523.44;;;21.53;34.39
26823;BME280;14852;51.910;8.878;2023-04-30T09:01:44;100521.91;;;21.29;35.11
26823;BME280;14852;51.910;8.878;2023-04-30T09:04:10;100524.66;;;20.54;35.76
26823;BME280;14852;51.910;8.878;2023-04-30T09:06:36;100524.81;;;20.19;36.96
26823;BME280;14852;51.910;8.878;2023-04-30T09:09:11;100528.69;;;20.15;37.15
26823;BME280;14852;51.910;8.878;2023-04-30T09:11:37;100528.94;;;20.01;37.02
26823;BME280;14852;51.910;8.878;2023-04-30T09:14:03;100517.19;;;20.05;36.81
26823;BME280;14852;51.910;8.878;2023-04-30T09:19:25;100522.84;;;19.89;37.42
26823;BME280;14852;51.910;8.878;2023-04-30T09:21:52;100519.75;;;19.96;36.75
26823;BME280;14852;51.910;8.878;2023-04-30T09:24:18;100524.63;;;20.00;36.87
26823;BME280;14852;51.910;8.878;2023-04-30T09:26:45;100515.63;;;20.03;36.56
26823;BME280;14852;51.910;8.878;2023-04-30T09:29:12;100517.44;;;20.02;36.86
26823;BME280;14852;51.910;8.878;2023-04-30T09:31:42;100513.00;;;20.03;37.40
26823;BME280;14852;51.910;8.878;2023-04-30T09:34:09;100519.06;;;20.37;36.51
26823;BME280;14852;51.910;8.878;2023-04-30T09:36:35;100515.59;;;20.25;36.55
26823;BME280;14852;51.910;8.878;2023-04-30T09:39:09;100518.34;;;20.23;36.37
26823;BME280;14852;51.910;8.878;2023-04-30T09:41:36;100517.75;;;20.20;36.23
26823;BME280;14852;51.910;8.878;2023-04-30T09:44:02;100517.63;;;20.21;36.36
26823;BME280;14852;51.910;8.878;2023-04-30T09:46:33;100514.13;;;20.32;36.35
26823;BME280;14852;51.910;8.878;2023-04-30T09:49:04;100522.75;;;20.45;36.45
26823;BME280;14852;51.910;8.878;2023-04-30T09:51:30;100517.56;;;20.55;36.10
26823;BME280;14852;51.910;8.878;2023-04-30T09:53:56;100514.88;;;20.66;35.69
26823;BME280;14852;51.910;8.878;2023-04-30T09:56:24;100505.38;;;20.75;36.06
26823;BME280;14852;51.910;8.878;2023-04-30T09:58:55;100505.91;;;20.89;35.49
26823;BME280;14852;51.910;8.878;2023-04-30T10:01:24;100509.06;;;21.04;35.51
26823;BME280;14852;51.910;8.878;2023-04-30T10:03:53;100508.78;;;21.18;35.58
26823;BME280;14852;51.910;8.878;2023-04-30T10:06:20;100509.31;;;21.01;35.17
26823;BME280;14852;51.910;8.878;2023-04-30T10:08:55;100514.16;;;20.75;35.55
26823;BME280;14852;51.910;8.878;2023-04-30T10:11:27;100506.00;;;20.35;35.55
26823;BME280;14852;51.910;8.878;2023-04-30T10:14:04;100500.81;;;20.45;35.93
26823;BME280;14852;51.910;8.878;2023-04-30T10:16:54;100495.16;;;20.49;35.11
26823;BME280;14852;51.910;8.878;2023-04-30T10:19:25;100490.59;;;20.51;34.68
26823;BME280;14852;51.910;8.878;2023-04-30T10:21:54;100489.88;;;20.49;34.62
26823;BME280;14852;51.910;8.878;2023-04-30T10:24:20;100485.53;;;20.59;34.35
26823;BME280;14852;51.910;8.878;2023-04-30T10:26:47;100481.16;;;20.38;34.64
26823;BME280;14852;51.910;8.878;2023-04-30T10:29:14;100483.97;;;20.14;35.28
26823;BME280;14852;51.910;8.878;2023-04-30T10:31:45;100481.28;;;20.25;35.12
26823;BME280;14852;51.910;8.878;2023-04-30T10:37:29;100480.84;;;20.63;34.54
26823;BME280;14852;51.910;8.878;2023-04-30T10:39:55;100480.47;;;20.56;34.35
26823;BME280;14852;51.910;8.878;2023-04-30T10:42:21;100475.66;;;20.62;34.12
26823;BME280;14852;51.910;8.878;2023-04-30T10:44:47;100476.34;;;20.43;34.49
26823;BME280;14852;51.910;8.878;2023-04-30T10:47:15;100472.03;;;20.31;35.01
26823;BME280;14852;51.910;8.878;2023-04-30T10:49:45;100469.25;;;20.32;34.86
26823;BME280;14852;51.910;8.878;2023-04-30T10:52:13;100460.13;;;20.47;34.50
26823;BME280;14852;51.910;8.878;2023-04-30T10:54:39;100463.19;;;20.64;34.34
26823;BME280;14852;51.910;8.878;2023-04-30T10:57:15;100471.09;;;20.64;33.83
26823;BME280;14852;51.910;8.878;2023-04-30T11:02:41;100454.38;;;20.42;34.25
26823;BME280;14852;51.910;8.878;2023-04-30T11:05:13;100457.69;;;20.55;33.98
26823;BME280;14852;51.910;8.878;2023-04-30T11:07:50;100460.66;;;20.62;34.14
26823;BME280;14852;51.910;8.878;2023-04-30T11:10:21;100452.16;;;20.58;34.31
26823;BME280;14852;51.910;8.878;2023-04-30T11:12:49;100450.88;;;20.53;34.21
26823;BME280;14852;51.910;8.878;2023-04-30T11:15:19;100452.44;;;20.44;34.23
26823;BME280;14852;51.910;8.878;2023-04-30T11:17:49;100455.50;;;20.40;34.26
26823;BME280;14852;51.910;8.878;2023-04-30T11:20:20;100452.78;;;20.19;34.13
26823;BME280;14852;51.910;8.878;2023-04-30T11:22:47;100448.00;;;20.02;34.37
26823;BME280;14852;51.910;8.878;2023-04-30T11:25:18;100439.97;;;20.03;34.17
26823;BME280;14852;51.910;8.878;2023-04-30T11:27:44;100435.78;;;20.01;34.54
26823;BME280;14852;51.910;8.878;2023-04-30T11:30:13;100437.31;;;20.14;34.49
26823;BME280;14852;51.910;8.878;2023-04-30T11:32:41;100434.31;;;20.19;33.75
26823;BME280;14852;51.910;8.878;2023-04-30T11:35:08;100426.03;;;20.12;34.33
26823;BME280;14852;51.910;8.878;2023-04-30T11:37:37;100429.78;;;19.99;33.99
26823;BME280;14852;51.910;8.878;2023-04-30T11:40:06;100435.69;;;19.91;34.20
26823;BME280;14852;51.910;8.878;2023-04-30T11:42:32;100434.94;;;20.00;34.45
26823;BME280;14852;51.910;8.878;2023-04-30T11:45:13;100422.91;;;20.18;34.51
26823;BME280;14852;51.910;8.878;2023-04-30T11:47:45;100425.56;;;20.18;34.70
26823;BME280;14852;51.910;8.878;2023-04-30T11:50:17;100423.22;;;20.25;34.09
26823;BME280;14852;51.910;8.878;2023-04-30T11:52:51;100426.44;;;20.40;33.83
26823;BME280;14852;51.910;8.878;2023-04-30T11:55:21;100421.06;;;20.41;34.31
26823;BME280;14852;51.910;8.878;2023-04-30T11:57:52;100410.16;;;20.55;34.07
26823;BME280;14852;51.910;8.878;2023-04-30T12:00:25;100426.59;;;20.59;34.00
26823;BME280;14852;51.910;8.878;2023-04-30T12:02:53;100417.19;;;20.34;34.38
26823;BME280;14852;51.910;8.878;2023-04-30T12:05:24;100417.84;;;20.27;34.24
26823;BME280;14852;51.910;8.878;2023-04-30T12:07:59;100405.59;;;20.25;34.62
26823;BME280;14852;51.910;8.878;2023-04-30T12:10:26;100410.22;;;20.33;34.13
26823;BME280;14852;51.910;8.878;2023-04-30T12:12:52;100416.03;;;20.38;33.73
26823;BME280;14852;51.910;8.878;2023-04-30T12:15:21;100402.13;;;20.25;33.89
26823;BME280;14852;51.910;8.878;2023-04-30T12:17:58;100395.69;;;20.18;33.78
26823;BME280;14852;51.910;8.878;2023-04-30T12:20:26;100396.28;;;20.10;34.14
26823;BME280;14852;51.910;8.878;2023-04-30T12:22:53;100400.28;;;20.05;34.06
26823;BME280;14852;51.910;8.878;2023-04-30T12:25:22;100394.16;;;20.04;34.10
26823;BME280;14852;51.910;8.878;2023-04-30T12:27:50;100391.50;;;20.15;34.29
26823;BME280;14852;51.910;8.878;2023-04-30T12:30:23;100392.94;;;20.08;34.62
26823;BME280;14852;51.910;8.878;2023-04-30T12:32:52;100405.03;;;20.11;34.22
26823;BME280;14852;51.910;8.878;2023-04-30T12:35:21;100395.72;;;20.07;33.94
26823;BME280;14852;51.910;8.878;2023-04-30T12:37:53;100391.94;;;20.20;33.73
26823;BME280;14852;51.910;8.878;2023-04-30T12:40:26;100385.81;;;20.20;33.46
26823;BME280;14852;51.910;8.878;2023-04-30T12:43:02;100381.97;;;20.24;33.45
26823;BME280;14852;51.910;8.878;2023-04-30T12:45:57;100389.25;;;20.32;33.11
26823;BME280;14852;51.910;8.878;2023-04-30T12:48:24;100384.81;;;20.32;33.28
26823;BME280;14852;51.910;8.878;2023-04-30T12:50:59;100374.66;;;20.28;32.95
26823;BME280;14852;51.910;8.878;2023-04-30T12:53:26;100390.00;;;20.22;33.13
26823;BME280;14852;51.910;8.878;2023-04-30T12:56:13;100378.84;;;20.30;33.01
26823;BME280;14852;51.910;8.878;2023-04-30T12:58:46;100371.88;;;20.29;32.98
26823;BME280;14852;51.910;8.878;2023-04-30T13:01:17;100365.38;;;20.33;32.87
26823;BME280;14852;51.910;8.878;2023-04-30T13:03:44;100365.06;;;20.27;33.28
26823;BME280;14852;51.910;8.878;2023-04-30T13:06:09;100359.31;;;20.21;33.06
26823;BME280;14852;51.910;8.878;2023-04-30T13:08:35;100350.94;;;20.16;33.29
26823;BME280;14852;51.910;8.878;2023-04-30T13:11:01;100347.84;;;20.11;33.21
26823;BME280;14852;51.910;8.878;2023-04-30T13:13:27;100350.59;;;20.10;33.36
26823;BME280;14852;51.910;8.878;2023-04-30T13:15:53;100338.38;;;20.09;33.03
26823;BME280;14852;51.910;8.878;2023-04-30T13:18:19;100340.88;;;20.10;33.14
26823;BME280;14852;51.910;8.878;2023-04-30T13:20:44;100335.44;;;20.23;32.92